sensor_id;sensor_type;location;lat;lon;timestamp;pressure;altitude;pressure_sealevel;temperature;humidity
7376;BME280;3728;42.266;24.944;2022-09-17T00:01:29;98585.75;;;23.08;70.80
7376;BME280;3728;42.266;24.944;2022-09-17T00:04:00;98588.56;;;22.97;70.99
7376;BME280;3728;42.266;24.944;2022-09-17T00:06:32;98578.75;;;22.91;72.34
7376;BME280;3728;42.266;24.944;2022-09-17T00:09:00;98591.00;;;22.88;72.55
7376;BME280;3728;42.266;24.944;2022-09-17T00:11:32;98584.31;;;22.77;72.92
7376;BME280;3728;42.266;24.944;2022-09-17T00:14:03;98579.22;;;22.86;72.48
7376;BME280;3728;42.266;24.944;2022-09-17T00:16:36;98573.00;;;22.92;71.80
7376;BME280;3728;42.266;24.944;2022-09-17T00:19:09;98567.22;;;22.97;72.02
7376;BME280;3728;42.266;24.944;2022-09-17T00:21:42;98565.69;;;22.96;71.02
7376;BME280;3728;42.266;24.944;2022-09-17T00:24:11;98567.38;;;22.87;70.66
7376;BME280;3728;42.266;24.944;2022-09-17T00:26:39;98567.38;;;22.87;72.24
7376;BME280;3728;42.266;24.944;2022-09-17T00:29:10;98560.38;;;22.70;72.50
7376;BME280;3728;42.266;24.944;2022-09-17T00:31:38;98564.91;;;22.73;72.71
7376;BME280;3728;42.266;24.944;2022-09-17T00:34:07;98557.03;;;22.62;71.98
7376;BME280;3728;42.266;24.944;2022-09-17T00:36:35;98547.13;;;22.63;73.00
7376;BME280;3728;42.266;24.944;2022-09-17T00:39:06;98553.47;;;22.72;72.70
7376;BME280;3728;42.266;24.944;2022-09-17T00:41:36;98546.00;;;22.60;72.15
7376;BME280;3728;42.266;24.944;2022-09-17T00:44:39;98548.63;;;22.64;72.45
7376;BME280;3728;42.266;24.944;2022-09-17T00:47:33;98549.81;;;22.63;72.37
7376;BME280;3728;42.266;24.944;2022-09-17T00:50:08;98554.63;;;22.71;71.26
7376;BME280;3728;42.266;24.944;2022-09-17T00:57:52;98554.75;;;22.30;71.96
7376;BME280;3728;42.266;24.944;2022-09-17T01:00:25;98560.47;;;22.32;71.68
7376;BME280;3728;42.266;24.944;2022-09-17T01:02:53;98567.22;;;22.40;70.39
7376;BME280;3728;42.266;24.944;2022-09-17T01:05:30;98559.91;;;22.14;71.71
7376;BME280;3728;42.266;24.944;2022-09-17T01:08:30;98564.47;;;21.80;73.30
7376;BME280;3728;42.266;24.944;2022-09-17T01:20:06;98546.53;;;21.47;78.32
7376;BME280;3728;42.266;24.944;2022-09-17T01:31:39;98542.94;;;21.23;78.96
7376;BME280;3728;42.266;24.944;2022-09-17T01:37:33;98544.59;;;21.06;79.03
7376;BME280;3728;42.266;24.944;2022-09-17T01:40:15;98555.97;;;21.14;77.83
7376;BME280;3728;42.266;24.944;2022-09-17T01:43:05;98558.97;;;21.20;78.00
7376;BME280;3728;42.266;24.944;2022-09-17T01:45:38;98562.13;;;20.97;78.61
7376;BME280;3728;42.266;24.944;2022-09-17T01:48:20;98569.00;;;20.94;79.48
7376;BME280;3728;42.266;24.944;2022-09-17T01:51:06;98569.72;;;21.05;79.22
7376;BME280;3728;42.266;24.944;2022-09-17T01:53:45;98564.84;;;20.93;79.26
7376;BME280;3728;42.266;24.944;2022-09-17T01:56:21;98562.13;;;21.00;78.67
7376;BME280;3728;42.266;24.944;2022-09-17T01:59:03;98568.28;;;20.90;78.76
7376;BME280;3728;42.266;24.944;2022-09-17T02:01:38;98565.31;;;20.78;80.31
7376;BME280;3728;42.266;24.944;2022-09-17T02:04:33;98569.91;;;20.77;80.25
7376;BME280;3728;42.266;24.944;2022-09-17T02:07:30;98560.00;;;20.78;80.31
7376;BME280;3728;42.266;24.944;2022-09-17T02:10:07;98556.91;;;20.86;80.14
7376;BME280;3728;42.266;24.944;2022-09-17T02:12:45;98557.31;;;20.81;80.52
7376;BME280;3728;42.266;24.944;2022-09-17T02:15:26;98543.28;;;20.77;80.97
7376;BME280;3728;42.266;24.944;2022-09-17T02:20:56;98535.75;;;20.65;81.32
7376;BME280;3728;42.266;24.944;2022-09-17T02:23:35;98536.78;;;20.82;81.09
7376;BME280;3728;42.266;24.944;2022-09-17T02:26:27;98532.97;;;20.83;80.38
7376;BME280;3728;42.266;24.944;2022-09-17T02:29:11;98530.69;;;20.81;81.89
7376;BME280;3728;42.266;24.944;2022-09-17T02:31:46;98530.19;;;21.00;81.17
7376;BME280;3728;42.266;24.944;2022-09-17T02:34:14;98533.75;;;20.80;81.78
7376;BME280;3728;42.266;24.944;2022-09-17T02:36:41;98540.59;;;20.81;81.74
7376;BME280;3728;42.266;24.944;2022-09-17T02:39:09;98539.09;;;20.76;82.34
7376;BME280;3728;42.266;24.944;2022-09-17T02:59:33;98503.78;;;20.72;83.98
7376;BME280;3728;42.266;24.944;2022-09-17T03:04:52;98502.59;;;20.77;83.46
7376;BME280;3728;42.266;24.944;2022-09-17T03:07:21;98499.59;;;20.75;82.53
7376;BME280;3728;42.266;24.944;2022-09-17T03:09:49;98491.31;;;20.59;82.64
7376;BME280;3728;42.266;24.944;2022-09-17T03:12:17;98499.69;;;20.57;82.33
7376;BME280;3728;42.266;24.944;2022-09-17T03:14:44;98509.53;;;20.64;81.68
7376;BME280;3728;42.266;24.944;2022-09-17T03:17:12;98504.97;;;20.68;82.32
7376;BME280;3728;42.266;24.944;2022-09-17T03:19:40;98482.53;;;20.65;81.98
7376;BME280;3728;42.266;24.944;2022-09-17T03:22:08;98469.97;;;20.69;82.64
7376;BME280;3728;42.266;24.944;2022-09-17T03:24:35;98474.63;;;20.58;82.64
7376;BME280;3728;42.266;24.944;2022-09-17T03:27:03;98470.13;;;20.44;83.43
7376;BME280;3728;42.266;24.944;2022-09-17T03:29:30;98470.53;;;20.43;83.57
7376;BME280;3728;42.266;24.944;2022-09-17T03:31:58;98466.38;;;20.35;83.39
7376;BME280;3728;42.266;24.944;2022-09-17T03:34:26;98463.00;;;20.31;84.03
7376;BME280;3728;42.266;24.944;2022-09-17T03:36:53;98477.78;;;20.35;83.79
7376;BME280;3728;42.266;24.944;2022-09-17T03:39:21;98474.34;;;20.38;84.86
7376;BME280;3728;42.266;24.944;2022-09-17T03:41:49;98456.81;;;20.48;84.22
7376;BME280;3728;42.266;24.944;2022-09-17T03:44:16;98448.88;;;20.41;84.40
7376;BME280;3728;42.266;24.944;2022-09-17T03:46:44;98442.81;;;20.40;84.05
7376;BME280;3728;42.266;24.944;2022-09-17T03:49:12;98430.69;;;20.39;84.08
7376;BME280;3728;42.266;24.944;2022-09-17T03:51:40;98427.63;;;20.41;84.21
7376;BME280;3728;42.266;24.944;2022-09-17T03:54:07;98433.00;;;20.30;84.89
7376;BME280;3728;42.266;24.944;2022-09-17T03:56:35;98428.69;;;20.51;84.14
7376;BME280;3728;42.266;24.944;2022-09-17T03:59:02;98434.75;;;20.51;84.33
7376;BME280;3728;42.266;24.944;2022-09-17T04:01:30;98436.63;;;20.54;84.16
7376;BME280;3728;42.266;24.944;2022-09-17T04:03:58;98436.69;;;20.47;84.33
7376;BME280;3728;42.266;24.944;2022-09-17T04:06:26;98440.09;;;20.51;84.22
7376;BME280;3728;42.266;24.944;2022-09-17T04:08:53;98441.22;;;20.50;84.73
7376;BME280;3728;42.266;24.944;2022-09-17T04:11:22;98435.09;;;20.57;84.24
7376;BME280;3728;42.266;24.944;2022-09-17T04:13:50;98437.78;;;20.53;83.70
7376;BME280;3728;42.266;24.944;2022-09-17T04:16:18;98437.78;;;20.53;84.21
7376;BME280;3728;42.266;24.944;2022-09-17T04:18:46;98436.63;;;20.58;83.94
7376;BME280;3728;42.266;24.944;2022-09-17T04:21:13;98442.28;;;20.60;84.47
7376;BME280;3728;42.266;24.944;2022-09-17T04:23:42;98442.69;;;20.58;85.13
7376;BME280;3728;42.266;24.944;2022-09-17T04:26:09;98440.03;;;20.58;85.02
7376;BME280;3728;42.266;24.944;2022-09-17T04:28:37;98436.19;;;20.63;84.43
7376;BME280;3728;42.266;24.944;2022-09-17T04:31:05;98433.41;;;20.77;83.87
7376;BME280;3728;42.266;24.944;2022-09-17T04:33:32;98431.00;;;20.89;84.64
7376;BME280;3728;42.266;24.944;2022-09-17T04:36:00;98431.94;;;20.72;84.95
7376;BME280;3728;42.266;24.944;2022-09-17T04:38:28;98437.44;;;20.51;86.17
7376;BME280;3728;42.266;24.944;2022-09-17T04:40:55;98435.06;;;20.60;85.92
7376;BME280;3728;42.266;24.944;2022-09-17T04:43:23;98435.44;;;20.62;85.29
7376;BME280;3728;42.266;24.944;2022-09-17T04:45:51;98423.59;;;20.70;86.04
7376;BME280;3728;42.266;24.944;2022-09-17T04:48:18;98421.66;;;20.74;85.83
7376;BME280;3728;42.266;24.944;2022-09-17T04:50:46;98420.47;;;20.79;85.76
7376;BME280;3728;42.266;24.944;2022-09-17T04:53:13;98426.91;;;20.81;85.96
7376;BME280;3728;42.266;24.944;2022-09-17T04:55:42;98428.66;;;20.98;85.24
7376;BME280;3728;42.266;24.944;2022-09-17T04:58:09;98417.97;;;21.05;85.11
7376;BME280;3728;42.266;24.944;2022-09-17T05:00:40;98421.59;;;21.22;84.28
7376;BME280;3728;42.266;24.944;2022-09-17T05:03:08;98428.69;;;21.36;83.82
7376;BME280;3728;42.266;24.944;2022-09-17T05:05:35;98419.03;;;21.49;82.90
7376;BME280;3728;42.266;24.944;2022-09-17T05:08:03;98442.47;;;21.61;82.01
7376;BME280;3728;42.266;24.944;2022-09-17T05:10:31;98440.97;;;21.60;81.57
7376;BME280;3728;42.266;24.944;2022-09-17T05:12:58;98444.19;;;21.78;81.75
7376;BME280;3728;42.266;24.944;2022-09-17T05:15:26;98444.09;;;22.15;79.65
7376;BME280;3728;42.266;24.944;2022-09-17T05:17:53;98450.94;;;22.16;78.80
7376;BME280;3728;42.266;24.944;2022-09-17T05:20:21;98450.47;;;21.95;79.23
7376;BME280;3728;42.266;24.944;2022-09-17T05:22:50;98451.13;;;22.02;79.23
7376;BME280;3728;42.266;24.944;2022-09-17T05:25:20;98449.56;;;22.05;78.89
7376;BME280;3728;42.266;24.944;2022-09-17T05:27:52;98443.09;;;22.06;79.40
7376;BME280;3728;42.266;24.944;2022-09-17T05:30:20;98429.97;;;22.18;78.14
7376;BME280;3728;42.266;24.944;2022-09-17T05:32:48;98441.91;;;22.33;78.44
7376;BME280;3728;42.266;24.944;2022-09-17T05:35:21;98452.03;;;22.45;77.98
7376;BME280;3728;42.266;24.944;2022-09-17T05:37:49;98459.13;;;22.56;77.48
7376;BME280;3728;42.266;24.944;2022-09-17T05:40:16;98466.19;;;22.69;76.63
7376;BME280;3728;42.266;24.944;2022-09-17T05:42:44;98468.22;;;22.85;76.32
7376;BME280;3728;42.266;24.944;2022-09-17T05:45:11;98459.84;;;23.06;75.62
7376;BME280;3728;42.266;24.944;2022-09-17T05:47:39;98458.41;;;23.25;74.40
7376;BME280;3728;42.266;24.944;2022-09-17T05:50:07;98451.72;;;23.36;74.33
7376;BME280;3728;42.266;24.944;2022-09-17T05:52:34;98449.59;;;23.47;73.76
7376;BME280;3728;42.266;24.944;2022-09-17T05:55:02;98464.53;;;23.64;73.46
7376;BME280;3728;42.266;24.944;2022-09-17T05:57:30;98466.56;;;24.32;71.02
7376;BME280;3728;42.266;24.944;2022-09-17T05:59:57;98470.16;;;24.25;71.10
7376;BME280;3728;42.266;24.944;2022-09-17T06:02:25;98478.88;;;24.29;71.13
7376;BME280;3728;42.266;24.944;2022-09-17T06:04:52;98492.38;;;24.58;69.62
7376;BME280;3728;42.266;24.944;2022-09-17T06:07:21;98499.13;;;24.30;71.58
7376;BME280;3728;42.266;24.944;2022-09-17T06:09:49;98496.38;;;24.50;70.82
7376;BME280;3728;42.266;24.944;2022-09-17T06:12:16;98503.28;;;24.83;69.75
7376;BME280;3728;42.266;24.944;2022-09-17T06:14:44;98501.09;;;24.78;68.93
7376;BME280;3728;42.266;24.944;2022-09-17T06:17:11;98491.34;;;24.52;71.08
7376;BME280;3728;42.266;24.944;2022-09-17T06:19:39;98505.50;;;24.53;70.88
7376;BME280;3728;42.266;24.944;2022-09-17T06:22:06;98504.28;;;24.89;69.97
7376;BME280;3728;42.266;24.944;2022-09-17T06:24:34;98506.78;;;24.96;69.22
7376;BME280;3728;42.266;24.944;2022-09-17T06:27:01;98511.63;;;25.18;68.36
7376;BME280;3728;42.266;24.944;2022-09-17T06:29:29;98512.72;;;25.04;68.58
7376;BME280;3728;42.266;24.944;2022-09-17T06:31:56;98513.78;;;24.74;71.46
7376;BME280;3728;42.266;24.944;2022-09-17T06:34:24;98512.16;;;24.96;70.43
7376;BME280;3728;42.266;24.944;2022-09-17T06:36:52;98523.78;;;25.06;70.46
7376;BME280;3728;42.266;24.944;2022-09-17T06:39:19;98520.47;;;25.31;67.96
7376;BME280;3728;42.266;24.944;2022-09-17T06:41:47;98526.59;;;25.47;67.35
7376;BME280;3728;42.266;24.944;2022-09-17T06:44:15;98529.84;;;25.39;68.61
7376;BME280;3728;42.266;24.944;2022-09-17T06:46:42;98534.19;;;25.33;68.70
7376;BME280;3728;42.266;24.944;2022-09-17T06:49:10;98526.94;;;25.17;69.27
7376;BME280;3728;42.266;24.944;2022-09-17T06:51:37;98544.78;;;25.07;69.83
7376;BME280;3728;42.266;24.944;2022-09-17T06:54:05;98546.84;;;25.32;68.91
7376;BME280;3728;42.266;24.944;2022-09-17T06:56:33;98549.31;;;25.27;69.14
7376;BME280;3728;42.266;24.944;2022-09-17T06:59:01;98555.25;;;25.18;69.27
7376;BME280;3728;42.266;24.944;2022-09-17T07:01:29;98549.50;;;25.03;69.64
7376;BME280;3728;42.266;24.944;2022-09-17T07:03:57;98543.03;;;25.01;69.68
7376;BME280;3728;42.266;24.944;2022-09-17T07:06:24;98554.06;;;25.35;68.22
7376;BME280;3728;42.266;24.944;2022-09-17T07:08:52;98536.69;;;25.40;67.19
7376;BME280;3728;42.266;24.944;2022-09-17T07:11:19;98528.44;;;25.50;66.75
7376;BME280;3728;42.266;24.944;2022-09-17T07:13:47;98537.13;;;25.38;67.87
7376;BME280;3728;42.266;24.944;2022-09-17T07:16:14;98562.00;;;25.55;67.15
7376;BME280;3728;42.266;24.944;2022-09-17T07:18:42;98558.84;;;25.44;67.03
7376;BME280;3728;42.266;24.944;2022-09-17T07:21:09;98561.72;;;25.65;66.41
7376;BME280;3728;42.266;24.944;2022-09-17T07:23:38;98543.75;;;25.34;68.95
7376;BME280;3728;42.266;24.944;2022-09-17T07:26:09;98530.53;;;25.27;71.10
7376;BME280;3728;42.266;24.944;2022-09-17T07:28:40;98531.00;;;25.83;66.21
7376;BME280;3728;42.266;24.944;2022-09-17T07:31:10;98533.41;;;26.06;64.28
7376;BME280;3728;42.266;24.944;2022-09-17T07:33:42;98519.28;;;25.76;65.64
7376;BME280;3728;42.266;24.944;2022-09-17T07:36:15;98516.59;;;25.76;64.58
7376;BME280;3728;42.266;24.944;2022-09-17T07:38:43;98519.56;;;25.66;65.45
7376;BME280;3728;42.266;24.944;2022-09-17T07:41:13;98512.25;;;25.95;63.99
7376;BME280;3728;42.266;24.944;2022-09-17T07:43:42;98508.78;;;26.23;63.07
7376;BME280;3728;42.266;24.944;2022-09-17T07:46:17;98502.78;;;26.44;60.81
7376;BME280;3728;42.266;24.944;2022-09-17T07:48:47;98498.34;;;26.38;63.26
7376;BME280;3728;42.266;24.944;2022-09-17T07:51:17;98506.72;;;26.53;62.46
7376;BME280;3728;42.266;24.944;2022-09-17T07:53:52;98502.97;;;26.63;62.14
7376;BME280;3728;42.266;24.944;2022-09-17T07:56:21;98520.50;;;26.80;62.45
7376;BME280;3728;42.266;24.944;2022-09-17T07:58:49;98528.31;;;26.74;60.22
7376;BME280;3728;42.266;24.944;2022-09-17T08:01:18;98516.94;;;26.83;59.21
7376;BME280;3728;42.266;24.944;2022-09-17T08:03:50;98514.47;;;26.88;59.37
7376;BME280;3728;42.266;24.944;2022-09-17T08:06:24;98510.28;;;27.22;58.76
7376;BME280;3728;42.266;24.944;2022-09-17T08:08:54;98511.22;;;27.40;58.50
7376;BME280;3728;42.266;24.944;2022-09-17T08:11:26;98509.06;;;27.69;55.33
7376;BME280;3728;42.266;24.944;2022-09-17T08:14:16;98512.31;;;27.64;55.34
7376;BME280;3728;42.266;24.944;2022-09-17T08:16:43;98507.72;;;27.96;55.51
7376;BME280;3728;42.266;24.944;2022-09-17T08:19:13;98496.19;;;27.95;55.42
7376;BME280;3728;42.266;24.944;2022-09-17T08:21:44;98500.38;;;27.96;54.27
7376;BME280;3728;42.266;24.944;2022-09-17T08:24:12;98502.84;;;27.60;57.26
7376;BME280;3728;42.266;24.944;2022-09-17T08:26:40;98507.16;;;27.57;57.75
7376;BME280;3728;42.266;24.944;2022-09-17T08:29:07;98502.22;;;27.99;56.68
7376;BME280;3728;42.266;24.944;2022-09-17T08:31:36;98501.31;;;28.24;54.60
7376;BME280;3728;42.266;24.944;2022-09-17T08:34:07;98508.00;;;28.99;51.68
7376;BME280;3728;42.266;24.944;2022-09-17T08:36:35;98506.50;;;28.58;52.83
7376;BME280;3728;42.266;24.944;2022-09-17T08:39:03;98495.63;;;28.62;54.78
7376;BME280;3728;42.266;24.944;2022-09-17T08:41:43;98490.94;;;28.53;52.76
7376;BME280;3728;42.266;24.944;2022-09-17T08:44:30;98492.81;;;28.83;51.78
7376;BME280;3728;42.266;24.944;2022-09-17T08:47:29;98492.81;;;28.83;51.21
7376;BME280;3728;42.266;24.944;2022-09-17T08:50:05;98494.75;;;28.74;52.18
7376;BME280;3728;42.266;24.944;2022-09-17T08:55:39;98477.94;;;29.28;50.22
7376;BME280;3728;42.266;24.944;2022-09-17T09:04:34;98460.06;;;29.21;53.06
7376;BME280;3728;42.266;24.944;2022-09-17T09:07:23;98455.81;;;29.84;49.00
7376;BME280;3728;42.266;24.944;2022-09-17T09:10:27;98443.19;;;30.22;47.84
7376;BME280;3728;42.266;24.944;2022-09-17T09:12:59;98444.91;;;30.43;47.03
7376;BME280;3728;42.266;24.944;2022-09-17T09:15:44;98430.44;;;30.56;46.50
7376;BME280;3728;42.266;24.944;2022-09-17T09:18:29;98421.47;;;30.50;47.27
7376;BME280;3728;42.266;24.944;2022-09-17T09:32:36;98392.59;;;31.32;44.57
7376;BME280;3728;42.266;24.944;2022-09-17T09:35:30;98404.00;;;31.51;44.59
7376;BME280;3728;42.266;24.944;2022-09-17T09:38:17;98399.91;;;31.55;42.93
7376;BME280;3728;42.266;24.944;2022-09-17T09:41:18;98388.09;;;31.29;43.26
7376;BME280;3728;42.266;24.944;2022-09-17T09:44:14;98378.09;;;30.91;43.58
7376;BME280;3728;42.266;24.944;2022-09-17T09:58:54;98373.84;;;31.58;44.83
7376;BME280;3728;42.266;24.944;2022-09-17T10:01:26;98371.84;;;31.73;44.26
7376;BME280;3728;42.266;24.944;2022-09-17T10:03:54;98378.47;;;31.87;43.26
7376;BME280;3728;42.266;24.944;2022-09-17T10:06:28;98382.84;;;31.99;43.79
7376;BME280;3728;42.266;24.944;2022-09-17T10:11:29;98361.75;;;32.03;43.74
7376;BME280;3728;42.266;24.944;2022-09-17T10:14:26;98352.19;;;32.07;43.97
7376;BME280;3728;42.266;24.944;2022-09-17T10:17:22;98361.38;;;31.81;43.65
7376;BME280;3728;42.266;24.944;2022-09-17T10:20:07;98366.66;;;31.69;44.98
7376;BME280;3728;42.266;24.944;2022-09-17T10:22:46;98361.06;;;31.58;44.66
7376;BME280;3728;42.266;24.944;2022-09-17T10:25:22;98372.44;;;31.33;45.40
7376;BME280;3728;42.266;24.944;2022-09-17T10:27:59;98349.94;;;30.98;46.68
7376;BME280;3728;42.266;24.944;2022-09-17T10:30:29;98344.38;;;30.78;46.31
7376;BME280;3728;42.266;24.944;2022-09-17T10:33:17;98354.25;;;30.66;46.67
7376;BME280;3728;42.266;24.944;2022-09-17T10:35:59;98381.84;;;30.70;46.37
7376;BME280;3728;42.266;24.944;2022-09-17T10:38:38;98391.84;;;30.55;48.34
7376;BME280;3728;42.266;24.944;2022-09-17T10:41:18;98392.06;;;30.19;49.39
7376;BME280;3728;42.266;24.944;2022-09-17T10:44:16;98379.09;;;29.99;51.28
7376;BME280;3728;42.266;24.944;2022-09-17T10:46:46;98365.66;;;29.90;52.82
7376;BME280;3728;42.266;24.944;2022-09-17T10:49:37;98365.16;;;29.50;59.38
7376;BME280;3728;42.266;24.944;2022-09-17T10:52:33;98356.69;;;29.15;61.04
7376;BME280;3728;42.266;24.944;2022-09-17T11:08:57;98409.81;;;27.71;74.51
7376;BME280;3728;42.266;24.944;2022-09-17T11:30:06;98629.72;;;25.10;89.01
7376;BME280;3728;42.266;24.944;2022-09-17T11:36:17;98669.19;;;22.55;100.00
7376;BME280;3728;42.266;24.944;2022-09-17T11:38:50;98673.19;;;22.40;100.00
7376;BME280;3728;42.266;24.944;2022-09-17T11:41:30;98688.84;;;22.38;100.00
7376;BME280;3728;42.266;24.944;2022-09-17T11:44:23;98657.88;;;22.10;100.00
7376;BME280;3728;42.266;24.944;2022-09-17T11:47:01;98616.00;;;22.07;100.00
7376;BME280;3728;42.266;24.944;2022-09-17T11:52:45;98569.03;;;22.17;100.00
7376;BME280;3728;42.266;24.944;2022-09-17T11:55:25;98551.28;;;22.07;100.00
7376;BME280;3728;42.266;24.944;2022-09-17T11:58:38;98557.53;;;22.23;100.00
7376;BME280;3728;42.266;24.944;2022-09-17T12:01:15;98559.56;;;22.42;100.00
7376;BME280;3728;42.266;24.944;2022-09-17T12:04:37;98560.19;;;22.54;100.00
7376;BME280;3728;42.266;24.944;2022-09-17T12:13:21;98486.41;;;22.93;100.00
7376;BME280;3728;42.266;24.944;2022-09-17T12:16:21;98443.66;;;23.17;100.00
7376;BME280;3728;42.266;24.944;2022-09-17T12:19:00;98404.31;;;23.40;100.00
7376;BME280;3728;42.266;24.944;2022-09-17T12:21:48;98399.81;;;23.53;100.00
7376;BME280;3728;42.266;24.944;2022-09-17T12:24:28;98383.19;;;23.81;100.00
7376;BME280;3728;42.266;24.944;2022-09-17T12:27:14;98379.06;;;23.97;100.00
7376;BME280;3728;42.266;24.944;2022-09-17T12:36:41;98367.38;;;24.39;100.00
7376;BME280;3728;42.266;24.944;2022-09-17T12:40:14;98362.59;;;24.63;100.00
7376;BME280;3728;42.266;24.944;2022-09-17T12:51:38;98367.63;;;25.47;88.24
7376;BME280;3728;42.266;24.944;2022-09-17T13:01:06;98312.84;;;25.86;82.95
7376;BME280;3728;42.266;24.944;2022-09-17T13:07:05;98309.97;;;27.17;81.19
7376;BME280;3728;42.266;24.944;2022-09-17T13:13:24;98291.41;;;28.38;72.30
7376;BME280;3728;42.266;24.944;2022-09-17T13:21:53;98297.56;;;28.84;67.36
7376;BME280;3728;42.266;24.944;2022-09-17T13:24:29;98297.56;;;28.93;64.90
7376;BME280;3728;42.266;24.944;2022-09-17T13:26:58;98310.94;;;29.39;66.74
7376;BME280;3728;42.266;24.944;2022-09-17T13:40:25;98308.97;;;30.90;59.29
7376;BME280;3728;42.266;24.944;2022-09-17T13:48:31;98296.09;;;30.71;55.68
7376;BME280;3728;42.266;24.944;2022-09-17T13:54:09;98288.56;;;30.89;54.32
7376;BME280;3728;42.266;24.944;2022-09-17T13:56:46;98284.00;;;30.95;56.07
7376;BME280;3728;42.266;24.944;2022-09-17T13:59:28;98276.53;;;30.76;56.46
7376;BME280;3728;42.266;24.944;2022-09-17T14:10:01;98278.22;;;31.66;51.07
7376;BME280;3728;42.266;24.944;2022-09-17T14:21:04;98260.50;;;31.16;51.03
7376;BME280;3728;42.266;24.944;2022-09-17T14:23:56;98236.63;;;30.71;53.74
7376;BME280;3728;42.266;24.944;2022-09-17T14:38:11;98245.97;;;29.19;57.15
7376;BME280;3728;42.266;24.944;2022-09-17T14:44:24;98262.38;;;28.33;61.45
7376;BME280;3728;42.266;24.944;2022-09-17T14:49:43;98263.38;;;27.91;63.63
7376;BME280;3728;42.266;24.944;2022-09-17T14:52:38;98247.78;;;27.67;67.16
7376;BME280;3728;42.266;24.944;2022-09-17T14:57:56;98214.25;;;27.50;67.04
7376;BME280;3728;42.266;24.944;2022-09-17T15:00:35;98203.50;;;27.59;66.44
7376;BME280;3728;42.266;24.944;2022-09-17T15:03:04;98194.56;;;27.62;66.22
7376;BME280;3728;42.266;24.944;2022-09-17T15:05:34;98186.22;;;27.30;67.34
7376;BME280;3728;42.266;24.944;2022-09-17T15:11:01;98180.66;;;27.15;67.95
7376;BME280;3728;42.266;24.944;2022-09-17T15:13:49;98177.53;;;26.64;70.68
7376;BME280;3728;42.266;24.944;2022-09-17T15:16:22;98186.59;;;26.58;70.93
7376;BME280;3728;42.266;24.944;2022-09-17T15:18:57;98192.91;;;26.64;71.78
7376;BME280;3728;42.266;24.944;2022-09-17T15:27:08;98197.03;;;26.56;73.72
7376;BME280;3728;42.266;24.944;2022-09-17T15:30:01;98214.16;;;26.49;75.67
7376;BME280;3728;42.266;24.944;2022-09-17T15:32:33;98223.59;;;26.19;76.87
7376;BME280;3728;42.266;24.944;2022-09-17T15:40:49;98200.88;;;26.11;81.18
7376;BME280;3728;42.266;24.944;2022-09-17T15:43:31;98214.34;;;25.86;86.19
7376;BME280;3728;42.266;24.944;2022-09-17T15:46:26;98220.69;;;25.42;90.52
7376;BME280;3728;42.266;24.944;2022-09-17T15:49:00;98226.41;;;25.56;90.71
7376;BME280;3728;42.266;24.944;2022-09-17T15:51:33;98254.81;;;25.54;91.38
7376;BME280;3728;42.266;24.944;2022-09-17T15:54:05;98297.53;;;25.86;88.53
7376;BME280;3728;42.266;24.944;2022-09-17T15:56:56;98352.41;;;25.44;93.22
7376;BME280;3728;42.266;24.944;2022-09-17T15:59:32;98401.88;;;25.27;94.40
7376;BME280;3728;42.266;24.944;2022-09-17T16:02:04;98357.50;;;24.97;99.09
7376;BME280;3728;42.266;24.944;2022-09-17T16:04:36;98334.13;;;24.40;100.00
7376;BME280;3728;42.266;24.944;2022-09-17T16:29:02;98542.72;;;22.19;100.00
7376;BME280;3728;42.266;24.944;2022-09-17T16:31:32;98502.59;;;22.29;100.00
7376;BME280;3728;42.266;24.944;2022-09-17T16:34:00;98444.75;;;22.23;100.00
7376;BME280;3728;42.266;24.944;2022-09-17T16:36:28;98380.84;;;21.89;100.00
7376;BME280;3728;42.266;24.944;2022-09-17T16:39:00;98340.34;;;21.71;100.00
7376;BME280;3728;42.266;24.944;2022-09-17T16:41:28;98307.69;;;21.63;100.00
7376;BME280;3728;42.266;24.944;2022-09-17T16:43:58;98255.56;;;21.89;100.00
7376;BME280;3728;42.266;24.944;2022-09-17T16:46:28;98285.13;;;21.98;100.00
7376;BME280;3728;42.266;24.944;2022-09-17T16:48:56;98301.34;;;22.07;100.00
7376;BME280;3728;42.266;24.944;2022-09-17T16:51:26;98273.84;;;22.14;100.00
7376;BME280;3728;42.266;24.944;2022-09-17T16:53:55;98278.00;;;22.15;100.00
7376;BME280;3728;42.266;24.944;2022-09-17T16:56:23;98307.91;;;22.26;100.00
7376;BME280;3728;42.266;24.944;2022-09-17T16:58:54;98297.72;;;22.21;100.00
7376;BME280;3728;42.266;24.944;2022-09-17T17:01:22;98309.84;;;22.25;100.00
7376;BME280;3728;42.266;24.944;2022-09-17T17:03:50;98332.16;;;22.35;100.00
7376;BME280;3728;42.266;24.944;2022-09-17T17:06:20;98351.88;;;22.41;100.00
7376;BME280;3728;42.266;24.944;2022-09-17T17:08:48;98359.28;;;22.53;100.00
7376;BME280;3728;42.266;24.944;2022-09-17T17:11:15;98347.56;;;22.47;100.00
7376;BME280;3728;42.266;24.944;2022-09-17T17:13:43;98328.50;;;22.48;100.00
7376;BME280;3728;42.266;24.944;2022-09-17T17:16:13;98344.38;;;22.56;100.00
7376;BME280;3728;42.266;24.944;2022-09-17T17:18:42;98372.44;;;22.67;100.00
7376;BME280;3728;42.266;24.944;2022-09-17T17:21:11;98388.63;;;22.99;100.00
7376;BME280;3728;42.266;24.944;2022-09-17T17:23:40;98378.31;;;22.78;100.00
7376;BME280;3728;42.266;24.944;2022-09-17T17:26:16;98381.66;;;22.59;100.00
7376;BME280;3728;42.266;24.944;2022-09-17T17:28:46;98378.03;;;22.49;100.00
7376;BME280;3728;42.266;24.944;2022-09-17T17:31:15;98403.09;;;22.56;100.00
7376;BME280;3728;42.266;24.944;2022-09-17T17:33:43;98408.78;;;22.34;100.00
7376;BME280;3728;42.266;24.944;2022-09-17T17:36:12;98359.34;;;22.26;100.00
7376;BME280;3728;42.266;24.944;2022-09-17T17:38:40;98349.31;;;22.34;100.00
7376;BME280;3728;42.266;24.944;2022-09-17T17:41:10;98356.88;;;22.39;100.00
7376;BME280;3728;42.266;24.944;2022-09-17T17:43:40;98380.13;;;22.62;100.00
7376;BME280;3728;42.266;24.944;2022-09-17T17:46:09;98383.88;;;22.68;100.00
7376;BME280;3728;42.266;24.944;2022-09-17T17:48:38;98386.91;;;22.66;100.00
7376;BME280;3728;42.266;24.944;2022-09-17T17:51:08;98359.38;;;22.73;100.00
7376;BME280;3728;42.266;24.944;2022-09-17T17:53:37;98346.63;;;22.80;100.00
7376;BME280;3728;42.266;24.944;2022-09-17T17:56:11;98336.66;;;22.84;100.00
7376;BME280;3728;42.266;24.944;2022-09-17T17:58:40;98332.38;;;22.44;100.00
7376;BME280;3728;42.266;24.944;2022-09-17T18:01:19;98383.41;;;22.92;100.00
7376;BME280;3728;42.266;24.944;2022-09-17T18:03:49;98423.16;;;23.10;100.00